Stanhope, NJ

8:54 AM EST on March 02, 2015 (GMT -0500)
Stanhope,NJ | Change Station
CLOSE
Current Station
Personal Weather Station
Location: Stanhope, NJ
Elevation: 970 ft
Nearby Weather Stations
Active Advisory: Special Statement Active Notice: Public Information Statement

Elev 970 ft 40.91 °N, 74.70 °W | Updated 1 minute ago

Overcast
Overcast
27.7 °F
Feels Like 28 °F
N
0.0
Wind Variable Wind from ESE
Gusts 3.0 mph

Today
High -- | Low -- °F
--% Chance of Precip.
Yesterday
High -- | Low -- °F
Precip. -- in
6:31 AM 5:50 PM
Waxing Gibbous, 91% visible
Pressure 30.13 in
Visibility 3.0 miles
Clouds Scattered Clouds 3000 ft
Mostly Cloudy 4000 ft
Overcast 4600 ft
Windchill 28 °F
Dew Point 26 °F
Humidity 93%
Rainfall 0.00 in
Snow Depth Not available.
UV 1 out of 12
Pollen .50 out of 12
Air Quality Not available.
Flu Activity Not available.
METAR KMMU 021346Z 32005G11KT 3SM -SN SCT030 BKN040 OVC046 00/M03 A3013

More Conditions Fewer Conditions

Pressure 30.13 in
Visibility 3.0 miles
Clouds Scattered Clouds 3000 ft
Mostly Cloudy 4000 ft
Overcast 4600 ft
Windchill 28 °F
Dew Point 26 °F
Humidity 93%
Rainfall 0.00 in
Snow Depth Not available.
UV 1 out of 12
Pollen .50 out of 12
Air Quality Not available.
Flu Activity Not available.
METAR KMMU 021346Z 32005G11KT 3SM -SN SCT030 BKN040 OVC046 00/M03 A3013

More Conditions Fewer Conditions

10-Day Weather Forecast

Almanac

Astronomy

Mar. 02, 2015 Rise Set
Actual Time
Civil Twilight
Nautical Twilight
Astronomical Twilight
Moon
Length of Visible Light
Length of Day
Tomorrow will be .
, % of the Moon is Illuminated

Today's Extremes

State Highs State Lows

Community

WunderPhotos

Upload Photos

1,801,784 photos uploaded!

WunderBlogs® & News

Nearby

Air Quality

  Air Quality AQ Index Pollutant
Not available.

Snow Depth

Station Depth Elevation

Earthquake Activity

City Distance Mag. Time & Date
Minimum magnitude displayed is 2.5.

Coastal Water Temperatures

Place Temperature

Nearby Weather Stations

Special Statement
Statement as of 4:22 AM EST on March 02, 2015

... Slippery conditions remain this morning...

Temperatures remain in the mid and upper 20s to around freezing
this morning across the area. Untreated roads, sidewalks, and
parking lots will likely remain icy through this morning.

Some patchy fog will also occur and will reduce visibilities in
some areas.

Be alert for changing roadway conditions and visibilities. If you
will be driving, reduce your speed and allow plenty of distance
between you and the vehicle ahead of you.


Robertson